Terminal Aerodrome Forecast
Issued by NWS Grand Forks, ND

Home | Current Version | Previous Version | Text Only | Print | Product List | Glossary On
Versions: 1 2 3 4 5 6 7 8 9 10 11 12 13 14 15 16 17 18 19 20
019
FTUS43 KFGF 261136
TAFFAR
TAF
KFAR 261136Z 2612/2712 02007KT P6SM -RA OVC005
     FM261400 33008KT 4SM -RA OVC008
     FM261600 33008KT P6SM -RA OVC008
     FM261800 33008KT P6SM VCSH OVC015
     FM262200 32009KT P6SM BKN020
     FM270200 32005KT P6SM BKN035
     FM270500 VRB03KT P6SM SCT060=

USA.gov is the U.S. government's official web portal to all federal, state and local government web resources and services.